Time;durP1;ratioP1;P1;durP2;ratioP2;P2;SDS_P1;SDS_P2;PMS_P1;PMS_P2;Temp;Humidity;BMP_temperature;BMP_pressure;BME280_temperature;BME280_humidity;BME280_pressure;Samples;Min_cycle;Max_cycle;Signal;HPM_P1;HPM_P2
2022/04/22 00:00:00;;;;;;;20.58;7.30;;;8.80;99.90;;;;;;4953862;28;20030;-82
2022/04/22 00:02:26;;;;;;;13.70;7.03;;;8.70;99.90;;;;;;4953562;28;20115;-82
2022/04/22 00:04:51;;;;;;;13.80;6.55;;;8.60;99.90;;;;;;4953860;28;20106;-81
2022/04/22 00:07:17;;;;;;;18.10;6.03;;;8.60;99.90;;;;;;4954164;28;20035;-82
2022/04/22 00:09:43;;;;;;;18.60;6.43;;;8.60;99.90;;;;;;4953442;28;20053;-81
2022/04/22 00:12:09;;;;;;;11.70;5.95;;;8.70;99.90;;;;;;4931714;28;20027;-81
2022/04/22 00:14:35;;;;;;;19.42;6.78;;;8.60;99.90;;;;;;4952275;28;20039;-82
2022/04/22 00:17:00;;;;;;;22.95;8.27;;;8.70;99.90;;;;;;4952126;28;20039;-82
2022/04/22 00:19:26;;;;;;;18.05;6.88;;;8.70;99.90;;;;;;4953351;28;20051;-82
2022/04/22 00:21:53;;;;;;;19.58;7.03;;;8.70;99.90;;;;;;4953726;28;20066;-82
2022/04/22 00:24:19;;;;;;;14.55;5.75;;;8.70;99.90;;;;;;4953359;28;20035;-82
2022/04/22 00:26:45;;;;;;;25.30;6.43;;;8.70;99.90;;;;;;4953054;28;20063;-81
2022/04/22 00:29:11;;;;;;;24.83;7.78;;;8.70;99.90;;;;;;4953308;28;20502;-82
2022/04/22 00:31:37;;;;;;;15.43;6.53;;;8.60;99.90;;;;;;4953322;28;20024;-82
2022/04/22 00:34:03;;;;;;;15.43;6.50;;;8.50;99.90;;;;;;4953176;28;20050;-82
2022/04/22 00:36:29;;;;;;;18.40;7.38;;;8.50;99.90;;;;;;4942971;28;20039;-82
2022/04/22 00:38:55;;;;;;;16.80;7.22;;;8.50;99.90;;;;;;4949656;28;20031;-82
2022/04/22 00:41:20;;;;;;;17.98;8.50;;;8.50;99.90;;;;;;4965022;23;20097;-84
2022/04/22 00:43:50;;;;;;;19.35;6.50;;;8.40;99.90;;;;;;4991872;28;20053;-85
2022/04/22 00:46:17;;;;;;;19.98;8.25;;;8.30;99.90;;;;;;4991388;28;20022;-84
2022/04/22 00:48:43;;;;;;;13.63;7.45;;;8.40;99.90;;;;;;4973961;28;20039;-84
2022/04/22 00:51:10;;;;;;;24.75;7.47;;;8.50;99.90;;;;;;4991483;28;20027;-85
2022/04/22 00:53:45;;;;;;;17.10;6.63;;;8.40;99.90;;;;;;4991788;28;20065;-85
2022/04/22 00:56:11;;;;;;;21.48;8.02;;;8.40;99.90;;;;;;4990955;28;20031;-84
2022/04/22 00:58:41;;;;;;;18.50;7.63;;;8.40;99.90;;;;;;4991187;28;20425;-85
2022/04/22 01:01:08;;;;;;;22.63;7.53;;;8.50;99.90;;;;;;4991377;28;20073;-84
2022/04/22 01:03:34;;;;;;;14.95;7.95;;;8.50;99.90;;;;;;4991334;28;20030;-84
2022/04/22 01:11:35;;;;;;;17.27;7.88;;;8.50;99.90;;;;;;4984249;28;20441;-84
2022/04/22 01:14:01;;;;;;;25.55;8.18;;;8.40;99.90;;;;;;4991344;28;20030;-84
2022/04/22 01:16:28;;;;;;;26.98;8.52;;;8.40;99.90;;;;;;4973801;28;20069;-84
2022/04/22 01:18:54;;;;;;;19.80;8.60;;;8.40;99.90;;;;;;4991408;28;20475;-85
2022/04/22 01:21:20;;;;;;;20.00;9.57;;;8.50;99.90;;;;;;4966587;28;20023;-84
2022/04/22 01:23:46;;;;;;;17.23;7.68;;;8.50;99.90;;;;;;4991605;28;20073;-84
2022/04/22 01:26:13;;;;;;;18.60;8.80;;;8.50;99.90;;;;;;4990960;28;20542;-84
2022/04/22 01:28:39;;;;;;;25.02;9.52;;;8.50;99.90;;;;;;4991119;28;20146;-84
2022/04/22 01:31:05;;;;;;;21.25;9.27;;;8.50;99.90;;;;;;4991242;28;20541;-84
2022/04/22 01:33:31;;;;;;;21.88;8.65;;;8.40;99.90;;;;;;4990698;28;20097;-84
2022/04/22 01:35:57;;;;;;;27.95;8.15;;;8.50;99.90;;;;;;4972990;28;20113;-84
2022/04/22 01:38:22;;;;;;;17.52;8.63;;;8.40;99.90;;;;;;4990779;28;20079;-83
2022/04/22 01:40:48;;;;;;;23.67;9.98;;;8.40;99.90;;;;;;5005465;23;20059;-80
2022/04/22 01:43:14;;;;;;;26.08;9.77;;;8.50;99.90;;;;;;4987812;28;20118;-81
2022/04/22 01:45:40;;;;;;;24.08;9.77;;;8.50;99.90;;;;;;4990533;28;20453;-81
2022/04/22 01:48:06;;;;;;;21.35;9.32;;;8.50;99.90;;;;;;4990199;28;20105;-81
2022/04/22 01:50:32;;;;;;;20.35;10.50;;;8.60;99.90;;;;;;4989682;28;20490;-82
2022/04/22 01:52:59;;;;;;;26.38;10.15;;;8.60;99.90;;;;;;4990431;28;20081;-81
2022/04/22 01:55:26;;;;;;;25.48;11.50;;;8.60;99.90;;;;;;4990075;28;20054;-81
2022/04/22 01:57:53;;;;;;;19.50;9.88;;;8.70;99.90;;;;;;4990320;28;20130;-81
2022/04/22 02:00:19;;;;;;;26.45;10.57;;;8.80;99.90;;;;;;4989840;28;20045;-81
2022/04/22 02:02:45;;;;;;;23.30;10.73;;;8.90;99.90;;;;;;4990055;28;20081;-80
2022/04/22 02:05:10;;;;;;;23.85;11.20;;;9.00;99.90;;;;;;4987215;28;20440;-80
2022/04/22 02:07:36;;;;;;;25.65;10.93;;;9.00;99.90;;;;;;4967421;28;20365;-81
2022/04/22 02:10:03;;;;;;;26.85;10.93;;;9.00;99.90;;;;;;4967971;28;20388;-81
2022/04/22 02:12:29;;;;;;;31.05;12.63;;;9.00;99.90;;;;;;4970609;28;20030;-81
2022/04/22 02:14:54;;;;;;;32.55;13.07;;;9.00;99.90;;;;;;4967483;28;20027;-81
2022/04/22 02:17:20;;;;;;;26.75;12.18;;;9.10;99.90;;;;;;4968384;28;20050;-81
2022/04/22 02:19:46;;;;;;;35.42;13.82;;;9.10;99.90;;;;;;4967367;28;20046;-81
2022/04/22 02:22:11;;;;;;;25.35;12.70;;;9.00;99.90;;;;;;4967725;28;20035;-81
2022/04/22 02:24:37;;;;;;;25.50;12.93;;;9.10;99.90;;;;;;4950144;28;20035;-81
2022/04/22 02:29:48;;;;;;;26.50;12.68;;;9.00;99.90;;;;;;4969278;28;20053;-81
2022/04/22 02:32:14;;;;;;;29.88;13.93;;;9.00;99.90;;;;;;4965733;28;20396;-81
2022/04/22 02:34:40;;;;;;;29.33;12.52;;;9.00;99.90;;;;;;4966823;28;20417;-81
2022/04/22 02:37:06;;;;;;;22.60;12.65;;;9.00;99.90;;;;;;4970982;28;20027;-81
2022/04/22 02:39:31;;;;;;;25.45;12.38;;;9.00;99.90;;;;;;4967421;28;20027;-81
2022/04/22 02:47:25;;;;;;;21.85;13.07;;;9.00;99.90;;;;;;5010681;28;20418;-84
2022/04/22 02:49:51;;;;;;;27.73;13.30;;;9.00;99.90;;;;;;5009945;28;20026;-84
2022/04/22 02:52:17;;;;;;;28.00;13.05;;;9.00;99.90;;;;;;4974112;28;20483;-84
2022/04/22 02:54:43;;;;;;;29.75;14.07;;;9.00;99.90;;;;;;4973118;28;20026;-86
2022/04/22 02:57:09;;;;;;;31.08;14.02;;;9.00;99.90;;;;;;4989097;28;20049;-84
2022/04/22 02:59:37;;;;;;;30.98;13.43;;;9.00;99.90;;;;;;4972206;28;20022;-85
2022/04/22 03:02:05;;;;;;;30.80;14.65;;;9.00;99.90;;;;;;4972628;28;20081;-85
2022/04/22 03:04:30;;;;;;;27.85;14.90;;;9.00;99.90;;;;;;4989939;28;20021;-84
2022/04/22 03:06:56;;;;;;;31.77;14.55;;;9.10;99.90;;;;;;4972375;28;20026;-84
2022/04/22 03:09:23;;;;;;;30.02;14.30;;;9.10;99.90;;;;;;4989958;28;20018;-84
2022/04/22 03:11:48;;;;;;;35.83;15.48;;;9.20;99.90;;;;;;4971903;28;20030;-84
2022/04/22 03:14:14;;;;;;;31.38;15.05;;;9.30;99.90;;;;;;4993361;28;20026;-83
2022/04/22 03:16:40;;;;;;;35.58;15.68;;;9.20;99.90;;;;;;4993416;28;20033;-84
2022/04/22 03:19:07;;;;;;;33.70;16.40;;;9.30;99.90;;;;;;4962612;28;20026;-84
2022/04/22 03:21:34;;;;;;;31.38;15.13;;;9.40;99.90;;;;;;4975610;28;20034;-84
2022/04/22 03:24:00;;;;;;;38.70;16.20;;;9.40;99.90;;;;;;4993012;28;20023;-83
2022/04/22 03:26:26;;;;;;;33.42;15.05;;;9.50;99.90;;;;;;4993109;28;20458;-83
2022/04/22 03:28:52;;;;;;;32.30;15.70;;;9.50;99.90;;;;;;4992980;28;20027;-83
2022/04/22 03:31:19;;;;;;;27.23;14.25;;;9.40;99.90;;;;;;4992815;28;20014;-84
2022/04/22 03:33:44;;;;;;;32.10;15.50;;;9.50;99.90;;;;;;4993145;28;20026;-84
2022/04/22 03:36:10;;;;;;;35.35;15.20;;;9.50;99.90;;;;;;4992804;28;20022;-84
2022/04/22 03:38:36;;;;;;;31.10;15.07;;;9.50;99.90;;;;;;4975052;28;20034;-84
2022/04/22 04:40:35;;;;;;;31.33;18.92;;;8.70;99.90;;;;;;5924008;23;20333;-82
2022/04/22 04:43:01;;;;;;;43.00;19.30;;;8.60;99.90;;;;;;4987115;28;20490;-83
2022/04/22 04:45:28;;;;;;;43.58;17.00;;;8.50;99.90;;;;;;4960811;28;20419;-83
2022/04/22 04:47:53;;;;;;;37.15;17.30;;;8.50;99.90;;;;;;4991693;28;20022;-83
2022/04/22 04:50:19;;;;;;;40.83;17.98;;;8.50;99.90;;;;;;4973926;28;20391;-84
2022/04/22 04:52:45;;;;;;;34.83;17.98;;;8.40;99.90;;;;;;4991849;28;20085;-83
2022/04/22 04:55:15;;;;;;;32.95;18.40;;;8.40;99.90;;;;;;4991287;28;20471;-83
2022/04/22 04:57:42;;;;;;;38.72;17.13;;;8.30;99.90;;;;;;4973011;28;20039;-83
2022/04/22 05:00:10;;;;;;;36.92;18.00;;;8.30;99.90;;;;;;4991575;28;20118;-83
2022/04/22 05:02:37;;;;;;;35.85;17.50;;;8.40;99.90;;;;;;4991303;28;20014;-83
2022/04/22 05:05:07;;;;;;;37.00;17.67;;;8.50;99.90;;;;;;4973669;28;20015;-83
2022/04/22 05:07:33;;;;;;;39.30;17.35;;;8.60;99.90;;;;;;4973783;28;20026;-83
2022/04/22 05:09:59;;;;;;;35.22;19.30;;;8.60;99.90;;;;;;4991302;28;20018;-84
2022/04/22 05:12:25;;;;;;;41.97;16.88;;;8.60;99.90;;;;;;4967008;28;20097;-83
2022/04/22 05:14:52;;;;;;;42.95;18.30;;;8.60;99.90;;;;;;4990799;28;20018;-86
2022/04/22 05:17:18;;;;;;;33.42;16.92;;;8.70;99.90;;;;;;4973346;28;20034;-84
2022/04/22 05:19:43;;;;;;;40.28;18.58;;;8.80;99.90;;;;;;4973250;28;20069;-87
2022/04/22 05:22:09;;;;;;;34.08;16.08;;;9.00;99.90;;;;;;4991058;28;20089;-84
2022/04/22 05:24:35;;;;;;;32.25;16.55;;;9.10;99.90;;;;;;4973815;28;20015;-83
2022/04/22 05:27:01;;;;;;;40.03;16.77;;;9.20;99.90;;;;;;4972303;28;20537;-83
2022/04/22 05:34:55;;;;;;;31.42;16.13;;;9.50;99.90;;;;;;4990360;28;20037;-84
2022/04/22 05:37:21;;;;;;;35.50;15.10;;;9.60;99.90;;;;;;4990512;28;20034;-83
2022/04/22 05:39:47;;;;;;;32.03;14.82;;;9.70;99.90;;;;;;4973011;28;20026;-84
2022/04/22 06:47:27;;;;;;;29.00;16.05;;;11.30;99.90;;;;;;4980622;28;20137;-85
2022/04/22 06:49:53;;;;;;;36.35;17.80;;;11.30;99.90;;;;;;4993845;28;20087;-85
2022/04/22 06:52:20;;;;;;;31.33;16.75;;;11.40;99.90;;;;;;4976851;28;20030;-85
2022/04/22 06:54:45;;;;;;;39.80;17.00;;;11.50;99.90;;;;;;4974669;28;20085;-85
2022/04/22 06:57:12;;;;;;;29.98;16.15;;;11.50;99.90;;;;;;4973803;28;20491;-84
2022/04/22 06:59:37;;;;;;;28.38;15.68;;;11.60;99.90;;;;;;4974307;28;20114;-83
2022/04/22 07:02:03;;;;;;;35.22;18.00;;;11.80;99.90;;;;;;4957221;28;20113;-84
2022/04/22 07:04:29;;;;;;;35.65;19.40;;;11.90;99.90;;;;;;4964077;28;20432;-84
2022/04/22 07:06:55;;;;;;;31.05;17.50;;;12.10;99.90;;;;;;4973437;28;20085;-84
2022/04/22 07:09:21;;;;;;;35.10;18.45;;;12.20;99.90;;;;;;4973842;28;20043;-84
2022/04/22 07:11:50;;;;;;;34.95;18.48;;;12.20;99.90;;;;;;4969012;28;20515;-84
2022/04/22 07:14:16;;;;;;;33.03;17.13;;;12.30;99.90;;;;;;4968129;28;20057;-84
2022/04/22 07:16:45;;;;;;;35.75;18.92;;;12.40;99.90;;;;;;4973832;28;20027;-83
2022/04/22 07:19:11;;;;;;;39.10;19.73;;;12.60;99.90;;;;;;4956474;28;20031;-84
2022/04/22 07:21:37;;;;;;;34.35;17.67;;;12.70;99.90;;;;;;4973200;28;20472;-91
2022/04/22 07:24:03;;;;;;;35.65;18.35;;;12.80;99.90;;;;;;4973610;28;20034;-87
2022/04/22 07:26:30;;;;;;;34.40;17.95;;;12.90;99.90;;;;;;4956477;28;20058;-90
2022/04/22 07:28:58;;;;;;;32.55;16.77;;;13.10;99.90;;;;;;4973777;28;20034;-86
2022/04/22 07:31:28;;;;;;;33.55;17.92;;;13.20;99.90;;;;;;4973760;28;20015;-87
2022/04/22 07:33:54;;;;;;;33.17;18.15;;;13.30;99.90;;;;;;4973551;28;20023;-88
2022/04/22 07:36:20;;;;;;;31.13;17.88;;;13.20;99.90;;;;;;4972906;28;20022;-85
2022/04/22 07:38:46;;;;;;;34.80;18.55;;;13.30;99.90;;;;;;4973378;28;20047;-88
2022/04/22 08:40:45;;;;;;;20.23;13.18;;;15.70;93.40;;;;;;5975614;23;21438;-86
2022/04/22 08:43:12;;;;;;;18.70;12.73;;;15.80;93.40;;;;;;4970950;28;20486;-86
2022/04/22 08:45:38;;;;;;;21.92;13.20;;;15.70;92.60;;;;;;4992678;28;20038;-87
2022/04/22 08:51:02;;;;;;;22.63;12.95;;;15.90;92.70;;;;;;4968989;28;20037;-88
2022/04/22 08:53:30;;;;;;;18.70;12.18;;;16.20;93.10;;;;;;4974498;28;20427;-84
2022/04/22 08:55:57;;;;;;;22.83;12.35;;;16.30;91.70;;;;;;4991443;28;20036;-85
2022/04/22 08:58:27;;;;;;;23.88;12.35;;;16.70;91.60;;;;;;4992400;28;20475;-88
2022/04/22 09:00:57;;;;;;;17.05;11.52;;;17.10;90.20;;;;;;4978609;28;20018;-88
2022/04/22 09:03:26;;;;;;;18.88;11.90;;;16.80;88.30;;;;;;4991254;28;20360;-89
2022/04/22 09:05:52;;;;;;;19.67;11.55;;;16.70;89.00;;;;;;4991265;28;20026;-88
2022/04/22 09:08:18;;;;;;;17.80;11.98;;;16.60;90.40;;;;;;4992449;28;20029;-92
2022/04/22 09:10:44;;;;;;;17.67;11.52;;;15.80;88.70;;;;;;4974166;28;20478;-89
2022/04/22 09:13:26;;;;;;;17.02;11.00;;;15.80;90.50;;;;;;4991781;28;20064;-90
2022/04/22 09:15:52;;;;;;;15.57;10.32;;;16.00;89.90;;;;;;4974306;28;20033;-89
2022/04/22 09:18:18;;;;;;;16.70;10.45;;;16.50;90.50;;;;;;4974387;28;20125;-91
2022/04/22 09:20:47;;;;;;;14.77;9.13;;;17.20;85.00;;;;;;4992823;28;20101;-88
2022/04/22 09:23:33;;;;;;;15.55;8.85;;;17.90;79.10;;;;;;4991560;28;20080;-89
2022/04/22 09:26:00;;;;;;;13.23;8.73;;;17.80;74.70;;;;;;4991354;28;21345;-90
2022/04/22 09:28:26;;;;;;;13.75;8.63;;;18.20;75.80;;;;;;4973591;28;20026;-90
2022/04/22 09:30:59;;;;;;;9.55;7.50;;;18.50;72.70;;;;;;4991707;28;20434;-89
2022/04/22 09:33:25;;;;;;;13.52;6.80;;;18.90;68.80;;;;;;4991165;28;20022;-89
2022/04/22 10:42:33;;;;;;;10.60;7.32;;;19.00;67.80;;;;;;5187350;23;20077;-88
2022/04/22 10:47:55;;;;;;;11.23;7.32;;;21.10;62.90;;;;;;4934686;29;20035;-90
2022/04/22 10:50:31;;;;;;;11.45;7.35;;;21.50;58.20;;;;;;4933975;29;20084;-87
2022/04/22 10:53:03;;;;;;;13.90;7.97;;;21.10;56.50;;;;;;4929177;29;20023;-90
2022/04/22 10:55:30;;;;;;;;;;;19.40;59.20;;;;;;4934207;29;20481;-90
2022/04/22 10:58:17;;;;;;;12.68;7.97;;;19.20;62.60;;;;;;4931818;29;19955;-91
2022/04/22 11:00:55;;;;;;;13.50;7.88;;;18.90;65.60;;;;;;4931977;29;20102;-89
2022/04/22 11:03:25;;;;;;;12.38;8.88;;;18.40;66.40;;;;;;4933450;29;20107;-89
2022/04/22 11:05:58;;;;;;;13.73;8.38;;;18.30;67.20;;;;;;4933338;29;20062;-91
2022/04/22 11:08:30;;;;;;;12.25;8.10;;;18.30;67.00;;;;;;4933569;29;20020;-91
2022/04/22 11:10:56;;;;;;;17.30;8.30;;;18.10;68.10;;;;;;4934332;29;20047;-90
2022/04/22 11:13:38;;;;;;;12.60;9.60;;;18.20;70.90;;;;;;4924222;29;20056;-93
2022/04/22 11:16:07;;;;;;;13.00;9.32;;;17.90;69.50;;;;;;4932793;29;20035;-88
2022/04/22 11:18:39;;;;;;;11.48;8.45;;;17.50;70.90;;;;;;4932864;29;20036;-92
2022/04/22 11:21:26;;;;;;;12.93;8.52;;;18.10;71.80;;;;;;4932973;29;20023;-91
2022/04/22 11:23:51;;;;;;;10.77;8.13;;;18.90;67.70;;;;;;4953591;28;20036;-94
2022/04/22 11:26:17;;;;;;;15.00;8.27;;;19.00;65.70;;;;;;4933821;29;20082;-91
2022/04/22 11:28:45;;;;;;;13.20;8.05;;;20.00;62.10;;;;;;4933107;29;20034;-92
2022/04/22 11:31:12;;;;;;;13.38;9.35;;;19.80;62.90;;;;;;4933104;29;20031;-91
2022/04/22 11:34:01;;;;;;;12.70;8.35;;;19.10;62.70;;;;;;4933711;29;20425;-90
2022/04/22 11:36:27;;;;;;;12.00;8.57;;;18.90;63.80;;;;;;4937711;29;20082;-91
2022/04/22 11:38:55;;;;;;;11.00;7.75;;;18.90;69.40;;;;;;4935262;29;20028;-90
2022/04/22 12:40:54;;;;;;;13.13;7.57;;;17.00;75.50;;;;;;5962927;23;20006;-89
2022/04/22 12:43:27;;;;;;;12.43;6.75;;;17.10;74.40;;;;;;4951524;28;20030;-90
2022/04/22 12:52:15;;;;;;;8.50;5.75;;;18.90;70.60;;;;;;4952211;29;20030;-91
2022/04/22 12:54:45;;;;;;;9.85;5.40;;;21.70;60.00;;;;;;4940155;28;20067;-90
2022/04/22 12:57:16;;;;;;;8.27;5.25;;;22.20;53.70;;;;;;4935967;29;20035;-91
2022/04/22 12:59:45;;;;;;;9.20;5.57;;;20.80;56.50;;;;;;4934913;29;20030;-89
2022/04/22 13:02:13;;;;;;;11.57;6.35;;;20.60;60.30;;;;;;4934901;29;20028;-92
2022/04/22 13:04:58;;;;;;;9.38;6.03;;;19.60;58.10;;;;;;4935016;29;20028;-91
2022/04/22 13:07:25;;;;;;;8.00;6.13;;;19.20;60.90;;;;;;4926032;29;20050;-92
2022/04/22 13:09:52;;;;;;;15.38;6.50;;;18.60;63.10;;;;;;4935650;29;20103;-90
2022/04/22 13:12:17;;;;;;;8.82;5.57;;;18.20;64.60;;;;;;4932721;29;20027;-90
2022/04/22 13:14:43;;;;;;;11.93;6.15;;;18.10;66.00;;;;;;4934158;29;20027;-90
2022/04/22 13:17:28;;;;;;;11.25;5.80;;;17.60;69.40;;;;;;4934515;29;20042;-91
2022/04/22 13:19:53;;;;;;;9.98;6.47;;;17.00;71.70;;;;;;4933792;29;20020;-89
2022/04/22 13:22:19;;;;;;;13.38;6.82;;;16.80;71.00;;;;;;4931368;29;20532;-90
2022/04/22 13:24:45;;;;;;;11.77;6.32;;;16.90;73.00;;;;;;4934016;29;20083;-91
2022/04/22 13:27:13;;;;;;;10.80;6.65;;;17.20;71.50;;;;;;4934494;29;20024;-91
2022/04/22 13:29:39;;;;;;;11.13;6.20;;;17.10;70.30;;;;;;4933547;29;20020;-92
2022/04/22 13:32:04;;;;;;;10.35;6.35;;;17.00;70.80;;;;;;4933907;29;20043;-87
2022/04/22 13:34:30;;;;;;;12.88;6.47;;;16.90;69.80;;;;;;4931827;29;20389;-88
2022/04/22 13:36:56;;;;;;;12.68;6.97;;;17.00;70.40;;;;;;4933166;29;20020;-90
2022/04/22 13:39:21;;;;;;;11.60;7.40;;;16.40;72.10;;;;;;4933080;29;20106;-83
2022/04/22 14:41:20;;;;;;;19.45;12.27;;;15.60;82.10;;;;;;5773995;23;20075;-85
2022/04/22 14:43:46;;;;;;;19.75;13.02;;;15.50;83.10;;;;;;4943252;28;20380;-85
2022/04/22 14:46:14;;;;;;;20.02;12.85;;;15.60;83.40;;;;;;4938902;28;20028;-83
2022/04/22 14:48:40;;;;;;;20.80;12.32;;;15.50;84.40;;;;;;4928284;28;20068;-85
2022/04/22 14:51:05;;;;;;;19.95;13.65;;;15.10;83.70;;;;;;4926319;29;20116;-86
2022/04/22 14:53:32;;;;;;;19.73;12.55;;;15.10;85.40;;;;;;4918850;29;20122;-83
2022/04/22 14:55:59;;;;;;;25.02;12.45;;;14.90;88.00;;;;;;4925512;29;20595;-82
2022/04/22 14:58:25;;;;;;;25.00;13.18;;;14.80;88.60;;;;;;4915381;29;20050;-83
2022/04/22 15:00:51;;;;;;;24.90;13.60;;;14.70;89.40;;;;;;4913007;29;20040;-83
2022/04/22 15:03:17;;;;;;;20.98;12.98;;;14.70;89.50;;;;;;4912683;29;20065;-84
2022/04/22 15:05:43;;;;;;;23.17;13.65;;;14.90;90.90;;;;;;4913328;29;20472;-82
2022/04/22 15:08:09;;;;;;;27.98;13.68;;;14.90;90.30;;;;;;4919890;29;20036;-85
2022/04/22 15:10:35;;;;;;;21.05;13.10;;;14.80;90.70;;;;;;4926489;29;20039;-83
2022/04/22 15:13:02;;;;;;;21.23;13.57;;;15.10;90.30;;;;;;4922903;29;20027;-86
2022/04/22 15:15:28;;;;;;;22.45;12.02;;;15.10;90.20;;;;;;4925562;29;20028;-87
2022/04/22 15:26:06;;;;;;;20.88;12.60;;;16.00;86.00;;;;;;4936451;29;20027;-86
2022/04/22 15:28:32;;;;;;;23.10;13.75;;;15.60;86.70;;;;;;4934258;29;20036;-87
2022/04/22 15:31:05;;;;;;;24.33;13.45;;;15.30;88.40;;;;;;4934608;29;20032;-88
2022/04/22 15:33:30;;;;;;;23.40;13.27;;;15.30;88.00;;;;;;4923459;29;20044;-88
2022/04/22 15:35:56;;;;;;;22.95;14.23;;;15.30;90.40;;;;;;4935880;29;20477;-86
2022/04/22 15:38:22;;;;;;;21.30;12.80;;;15.40;90.30;;;;;;4934641;29;20106;-91
2022/04/22 16:43:04;;;;;;;16.50;9.73;;;15.30;89.60;;;;;;5052149;23;20074;-85
2022/04/22 16:45:30;;;;;;;18.42;9.70;;;15.60;90.20;;;;;;4953412;28;20027;-85
2022/04/22 16:48:03;;;;;;;18.10;9.25;;;15.90;88.90;;;;;;4953957;28;20116;-86
2022/04/22 16:50:32;;;;;;;17.30;9.35;;;16.00;88.80;;;;;;4952459;28;20027;-88
2022/04/22 16:53:00;;;;;;;18.63;9.27;;;15.60;88.80;;;;;;4952455;28;20027;-86
2022/04/22 16:55:26;;;;;;;18.08;8.75;;;15.30;91.30;;;;;;4953854;28;20023;-88
2022/04/22 16:57:52;;;;;;;15.48;8.82;;;15.40;91.20;;;;;;4953444;28;20031;-86
2022/04/22 17:00:18;;;;;;;17.88;9.88;;;15.30;90.40;;;;;;4952056;28;20384;-85
2022/04/22 17:02:46;;;;;;;18.02;9.25;;;15.50;90.70;;;;;;4953797;28;20503;-85
2022/04/22 17:05:12;;;;;;;15.18;8.90;;;15.50;88.90;;;;;;4953479;28;20027;-87
2022/04/22 17:07:38;;;;;;;14.45;9.52;;;15.40;89.90;;;;;;4953551;28;20091;-86
2022/04/22 17:10:07;;;;;;;15.75;8.60;;;15.40;90.20;;;;;;4951653;28;20023;-86
2022/04/22 17:12:34;;;;;;;15.10;8.45;;;15.50;89.60;;;;;;4944827;28;20039;-87
2022/04/22 17:23:13;;;;;;;14.95;7.68;;;15.60;85.20;;;;;;4953553;28;20049;-87
2022/04/22 17:25:39;;;;;;;14.60;7.28;;;15.50;85.10;;;;;;4953390;28;20469;-87
2022/04/22 17:28:05;;;;;;;11.90;7.03;;;15.60;86.00;;;;;;4953632;28;20027;-85
2022/04/22 17:30:31;;;;;;;9.98;6.95;;;15.60;83.50;;;;;;4953185;28;20019;-86
2022/04/22 17:32:57;;;;;;;12.77;8.10;;;15.50;86.20;;;;;;4951554;28;20028;-86
2022/04/22 17:35:23;;;;;;;10.57;7.13;;;15.20;84.30;;;;;;4953199;28;20015;-86
2022/04/22 17:37:49;;;;;;;15.88;8.85;;;15.20;85.30;;;;;;4950873;28;20082;-86
2022/04/22 17:40:16;;;;;;;13.75;6.80;;;15.20;86.70;;;;;;4949314;29;20814;-85
2022/04/22 18:47:03;;;;;;;15.68;5.35;;;12.80;95.70;;;;;;5148650;27;20135;-89
2022/04/22 18:49:29;;;;;;;11.63;4.35;;;12.50;97.60;;;;;;5128703;27;20054;-90
2022/04/22 18:51:55;;;;;;;20.08;6.10;;;12.40;97.60;;;;;;5120833;27;20524;-88
2022/04/22 18:54:21;;;;;;;14.90;4.72;;;12.30;98.00;;;;;;5108771;28;20022;-87
2022/04/22 18:56:47;;;;;;;15.30;4.80;;;12.20;98.40;;;;;;5107723;28;20043;-86
2022/04/22 18:59:13;;;;;;;13.93;3.83;;;12.10;98.30;;;;;;5105735;28;20512;-88
2022/04/22 19:01:39;;;;;;;19.17;6.93;;;12.10;99.10;;;;;;5104342;28;20027;-90
2022/04/22 19:04:05;;;;;;;14.85;4.45;;;12.10;99.60;;;;;;5104378;28;20147;-86
2022/04/22 19:06:31;;;;;;;19.25;5.38;;;12.00;99.50;;;;;;5105601;28;20020;-88
2022/04/22 19:08:56;;;;;;;16.23;5.00;;;12.00;99.70;;;;;;5106173;28;20031;-84
2022/04/22 19:11:22;;;;;;;12.07;4.35;;;11.90;99.90;;;;;;5106164;28;20012;-86
2022/04/22 19:13:48;;;;;;;20.80;5.45;;;11.90;99.90;;;;;;5106402;28;20028;-86
2022/04/22 19:16:14;;;;;;;17.13;4.60;;;11.90;99.90;;;;;;5106311;28;20067;-86
2022/04/22 19:18:42;;;;;;;20.27;4.60;;;11.80;99.90;;;;;;5107731;28;20082;-86
2022/04/22 19:21:07;;;;;;;16.50;5.13;;;11.80;99.90;;;;;;5107672;28;20036;-86
2022/04/22 19:23:34;;;;;;;14.88;4.80;;;11.70;99.90;;;;;;5107398;28;20033;-86
2022/04/22 19:26:00;;;;;;;22.08;4.57;;;11.70;99.90;;;;;;5107674;28;20473;-86
2022/04/22 19:28:26;;;;;;;9.73;4.18;;;11.70;99.90;;;;;;5107102;28;20377;-86
2022/04/22 19:30:52;;;;;;;14.38;4.28;;;11.60;99.90;;;;;;5107172;28;20027;-85
2022/04/22 19:33:18;;;;;;;17.90;5.75;;;11.60;99.90;;;;;;5107466;28;20338;-86
2022/04/22 19:35:43;;;;;;;14.10;4.20;;;11.60;99.90;;;;;;5107259;28;20038;-87
2022/04/22 19:40:54;;;;;;;14.93;4.47;;;11.60;99.90;;;;;;5107347;28;20096;-87
2022/04/22 19:43:27;;;;;;;15.57;4.68;;;11.50;99.90;;;;;;5106478;22;20072;-78
2022/04/22 19:46:00;;;;;;;22.23;4.28;;;11.50;99.90;;;;;;5085447;28;20043;-78
2022/04/22 19:48:27;;;;;;;16.30;4.22;;;11.50;99.90;;;;;;5073043;28;20029;-77
2022/04/22 19:50:53;;;;;;;16.85;4.72;;;11.50;99.90;;;;;;5073000;28;20032;-78
2022/04/22 19:53:22;;;;;;;15.30;4.30;;;11.40;99.90;;;;;;5073237;28;20051;-79
2022/04/22 19:55:48;;;;;;;15.90;4.03;;;11.40;99.90;;;;;;5072611;28;20039;-80
2022/04/22 19:58:14;;;;;;;15.05;4.20;;;11.40;99.90;;;;;;5054306;28;20020;-80
2022/04/22 20:00:51;;;;;;;17.80;4.78;;;11.30;99.90;;;;;;5072887;28;20037;-77
2022/04/22 20:03:25;;;;;;;13.25;4.05;;;11.30;99.90;;;;;;5073127;28;20159;-79
2022/04/22 20:05:51;;;;;;;14.90;4.65;;;11.30;99.90;;;;;;5072801;28;20028;-79
2022/04/22 20:08:17;;;;;;;15.95;5.55;;;11.30;99.90;;;;;;5072686;28;20025;-80
2022/04/22 20:10:44;;;;;;;17.48;4.68;;;11.30;99.90;;;;;;5054280;28;20055;-83
2022/04/22 20:13:10;;;;;;;17.88;4.55;;;11.20;99.90;;;;;;5069991;28;20035;-82
2022/04/22 20:15:37;;;;;;;15.30;4.30;;;11.20;99.90;;;;;;5069862;28;20032;-83
2022/04/22 20:18:03;;;;;;;16.13;4.72;;;11.20;99.90;;;;;;5070278;28;20103;-83
2022/04/22 20:20:30;;;;;;;20.27;4.65;;;11.20;99.90;;;;;;5065002;28;20048;-83
2022/04/22 20:22:56;;;;;;;19.13;4.43;;;11.10;99.90;;;;;;5072387;28;20481;-83
2022/04/22 20:25:24;;;;;;;14.35;4.60;;;11.20;99.90;;;;;;5062632;28;20074;-82
2022/04/22 20:27:50;;;;;;;14.63;4.82;;;11.20;99.90;;;;;;5068814;28;20384;-82
2022/04/22 20:30:16;;;;;;;19.15;5.13;;;11.10;99.90;;;;;;5067998;28;20020;-82
2022/04/22 20:32:49;;;;;;;10.23;4.45;;;11.10;99.90;;;;;;5068790;28;20059;-82
2022/04/22 20:43:41;;;;;;;20.40;5.47;;;11.00;99.90;;;;;;5084609;28;20051;-81
2022/04/22 20:46:08;;;;;;;22.13;5.35;;;11.00;99.90;;;;;;5087392;28;20008;-87
2022/04/22 20:48:34;;;;;;;13.00;5.32;;;11.00;99.90;;;;;;5086647;28;20856;-83
2022/04/22 20:51:00;;;;;;;19.10;5.57;;;11.00;99.90;;;;;;5086904;28;20023;-85
2022/04/22 20:56:11;;;;;;;12.40;5.07;;;10.90;99.90;;;;;;5087278;28;20051;-84
2022/04/22 20:58:37;;;;;;;17.48;5.32;;;11.00;99.90;;;;;;5094519;28;20020;-81
2022/04/22 21:01:05;;;;;;;18.05;5.47;;;11.00;99.90;;;;;;5074916;28;20433;-84
2022/04/22 21:03:31;;;;;;;16.40;5.15;;;10.90;99.90;;;;;;5087007;28;20060;-81
2022/04/22 21:05:58;;;;;;;15.85;5.63;;;10.90;99.90;;;;;;5090497;28;20077;-82
2022/04/22 21:08:24;;;;;;;17.70;5.35;;;10.90;99.90;;;;;;5090159;28;20101;-85
2022/04/22 21:10:50;;;;;;;14.95;5.80;;;10.90;99.90;;;;;;5078028;28;20031;-86
2022/04/22 21:13:16;;;;;;;20.58;6.22;;;11.00;99.90;;;;;;5087376;28;20055;-83
2022/04/22 21:15:43;;;;;;;14.43;5.68;;;11.00;99.90;;;;;;5087111;28;20036;-82
2022/04/22 21:18:09;;;;;;;16.88;6.07;;;11.00;99.90;;;;;;5086361;28;20046;-82
2022/04/22 21:20:35;;;;;;;22.15;6.68;;;10.90;99.90;;;;;;5086103;28;20047;-81
2022/04/22 21:23:02;;;;;;;15.95;6.22;;;11.00;99.90;;;;;;5083042;28;20028;-82
2022/04/22 21:25:29;;;;;;;17.67;5.75;;;11.00;99.90;;;;;;5080883;28;20032;-81
2022/04/22 21:27:57;;;;;;;18.60;6.20;;;10.90;99.90;;;;;;5068970;28;20062;-81
2022/04/22 21:30:26;;;;;;;17.73;6.07;;;11.00;99.90;;;;;;5086487;28;20303;-81
2022/04/22 21:32:57;;;;;;;18.25;5.93;;;10.90;99.90;;;;;;5085097;28;20032;-81
2022/04/22 21:35:24;;;;;;;15.45;5.97;;;10.90;99.90;;;;;;5074105;28;20518;-82
2022/04/22 21:37:51;;;;;;;17.77;5.65;;;11.00;99.90;;;;;;5083972;28;20107;-82
2022/04/22 21:40:17;;;;;;;21.05;6.45;;;11.00;99.90;;;;;;5084180;28;20031;-83
2022/04/22 21:42:44;;;;;;;15.50;6.40;;;11.00;99.90;;;;;;5084570;28;20032;-83
2022/04/22 21:45:09;;;;;;;18.50;5.72;;;11.00;99.90;;;;;;5069506;28;20428;-85
2022/04/22 21:47:35;;;;;;;16.05;5.97;;;11.40;99.90;;;;;;5068838;28;20059;-83
2022/04/22 21:50:01;;;;;;;14.55;5.80;;;11.00;99.90;;;;;;5067855;28;20027;-83
2022/04/22 21:52:27;;;;;;;19.65;5.30;;;11.00;99.90;;;;;;5086388;28;20019;-81
2022/04/22 21:54:53;;;;;;;19.05;5.72;;;11.00;99.90;;;;;;5087483;28;20036;-87